This is the latest recevied weather packets stored in our database for station/object BMCB-30. If no packets are shown the sender has not sent any weather packets the latest 10 day(s).
| Time | Temp. | Humidity | Pressure | Rain* | Wind** | Luminosity | Snow |
|---|---|---|---|---|---|---|---|
| 1777339244 | 7.78° C | 73% | 1021.3 hPa | 0 mm | - | 0 W/m² | - |
| 1777324849 | 8.89° C | 70% | 1021.5 hPa | 0 mm | - | 0 W/m² | - |
| 1777319449 | 11.11° C | 62% | 1021.6 hPa | 0 mm | - | 0 W/m² | - |
| 1777308646 | 19.44° C | 31% | 1020.9 hPa | 0 mm | - | 126 W/m² | - |
| 1777306845 | 20.56° C | 29% | 1020.9 hPa | 0 mm | - | 302 W/m² | - |
| 1777305649 | 20° C | 30% | 1021.1 hPa | 0 mm | - | 368 W/m² | - |
| 1777303248 | 20.56° C | 29% | 1021.2 hPa | 0 mm | - | 468 W/m² | - |
| 1777299046 | 20.56° C | 29% | 1021.9 hPa | 0 mm | - | 632 W/m² | - |
| 1777297846 | 21.67° C | 29% | 1022 hPa | 0 mm | - | 708 W/m² | - |
| 1777296647 | 20° C | 31% | 1022.4 hPa | 0 mm | - | 724 W/m² | - |
| 1777294845 | 18.89° C | 31% | 1022.7 hPa | 0 mm | - | 156 W/m² | - |
| 1777290643 | 17.22° C | 36% | 1023.6 hPa | 0 mm | - | 540 W/m² | - |
| 1777285246 | 15.56° C | 42% | 1024.4 hPa | 0 mm | - | 380 W/m² | - |
| 1777280446 | 13.89° C | 51% | 1025.1 hPa | 0 mm | - | 330 W/m² | - |
| 1777275045 | 8.33° C | 71% | 1025.4 hPa | 0 mm | - | 216 W/m² | - |
| 1777273845 | 8.33° C | 74% | 1025.5 hPa | 0 mm | - | 202 W/m² | - |
| 1777264844 | 1.67° C | 94% | 1025.2 hPa | 0 mm | - | 8 W/m² | - |
| 1777249844 | 4.44° C | 89% | 1025.6 hPa | 0 mm | - | 0 W/m² | - |
| 1777248041 | 5° C | 86% | 1025.9 hPa | 0 mm | - | 0 W/m² | - |
| 1777243848 | 6.67° C | 80% | 1025.6 hPa | 0 mm | - | 0 W/m² | - |
| 1777233652 | 10.56° C | 67% | 1025.5 hPa | 0 mm | - | 0 W/m² | - |
| 1777226447 | 16.11° C | 44% | 1024.2 hPa | 0 mm | - | 40 W/m² | - |
| 1777225846 | 16.67° C | 43% | 1024.1 hPa | 0 mm | - | 48 W/m² | - |
* Rain latest hour (hover to see other rain measurements)
** Current wind speed in m/s (hover to see current wind gust speed)